Fort Yukon Airport Fort Yukon US
ICAO: PFYU
IATA:
Category: Medium
Scheduled Services:

Elevation: 433 ft
TransAlt. 18000 ft.

Airport Communications:
AWOS 3:125.8
ANCHORAGE CNTR:135
CTAF:122.5
FAIRBANKS RDO:122.1
EIELSON RANGE CON:125.3
TWEB:114.4

PFYU Zoom In..

Runways:

(A) RW 04 length 5000 ft width 100 ft
---- / hdg 35

(B) RW 22 length 5000 ft width 100 ft
---- / hdg 215

Location; PFYU
Day. 22 / Time. 03.56 Zulu
* Altimeter: 30.05
* Temperature: -26° c. 14.8°f.
* Wind from: 030° Speed 04 kn.
Dewpoint: -28° c.
Visibility: 10 Statute Miles.
Clouds: Overcast 3700 ft.

PFYU 220356Z 03004KT 10SM OVC037 M26/M28 A3005 RMK AO2 SLPNO T12561283 $


Wind From 030°
Speed 04 kn.

jpsM music video
CHECK IT OUT

jpsM - It Moves..

 
jpsmedia.com for Web Design  worldairports.se 2018   terms of use